Grand Canyon National Park, AZ

6:00 AM MST on July 29, 2014 (GMT -0700)
Grand Canyon National Park (KGCN) Elev 6608 ft | 35.95 °N, 112.15 °W | Change Station

Current weather conditions updated 6 minutes ago

Clear
Clear
50 °F
Feels Like 50 °F
N
0
Wind Variable Wind from North

Today is forecast to be Warmer than yesterday.

Today
High -- | Low -- °F
--% Chance of Precip.
Yesterday
High -- | Low -- °F
Precip. -- in
5:33 AM 7:36 PM
Waxing Crescent, 6% visible
Pressure 30.13 in
Visibility 10.0 miles
Clouds Clear
Dew Point 48 °F
Humidity 93%
Rainfall 0.00 in
Snow Depth Not available.
UV 0 out of 12
Pollen 4.10 out of 12
Air Quality Not available.
Flu Activity Not available.
METAR KGCN 291254Z 00000KT 10SM CLR 10/09 A3037 RMK AO2 SLP202 T01000089

More Conditions Fewer Conditions

Pressure 30.13 in
Visibility 10.0 miles
Clouds Clear
Dew Point 48 °F
Humidity 93%
Rainfall 0.00 in
Snow Depth Not available.
UV 0 out of 12
Pollen 4.10 out of 12
Air Quality Not available.
Flu Activity Not available.
METAR KGCN 291254Z 00000KT 10SM CLR 10/09 A3037 RMK AO2 SLP202 T01000089

More Conditions Fewer Conditions

10-Day Weather Forecast

Almanac

Astronomy

Jul. 29, 2014 Rise Set
Actual Time 5:33 AM MST 7:36 PM MST
Civil Twilight 5:05 AM MST 8:04 PM MST
Nautical Twilight 4:30 AM MST 8:39 PM MST
Astronomical Twilight 3:52 AM MST 9:16 PM MST
Moon 8:06 AM MST 8:57 PM MST
Length of Visible Light 14h 59m
Length of Day
14h 02m
Tomorrow will be 1m 38s shorter.
Waxing Crescent, 6% of the Moon is Illuminated
Today
Waxing Crescent
Aug 3
First Quarter
Aug 10
Full
Aug 17
Last Quarter
Aug 25
New

Today's Extremes

State Highs State Lows

Community

WunderPhotos

Upload Photos

1,738,706 photos uploaded!

Nearby

Snow Depth

Station Depth Elevation
Snowslide Canyon 0 in 9730 ft
White Horse Lake 1 in 7180 ft
Mormon Mountain 0 in 7500 ft
Promontory 0 in 7930 ft
Heber 0 in 7640 ft

Earthquake Activity

City Distance Mag. Time & Date
No recent earthquake activity has been reported nearby.
Minimum magnitude displayed is 2.5.

Coastal Water Temperatures

Place Temperature
No Stations Reporting

Nearby Weather Stations

Station Location Temp. Dew Point Humidity Wind Precip. Elev Updated Type
APRSWXNET Grand Canyon AZ , Grand Canyon, AZ 70 °F 60 °F 71% SSW  at  2 mph 0.00 in / hr 3900 ft 5:33 AM MST MADIS

Show More Stations Show Fewer Stations